createdAt,value
2017-12-28T00:01:17.989Z,2.70
2017-12-28T00:03:47.048Z,2.63
2017-12-28T00:06:16.065Z,2.80
2017-12-28T00:08:45.137Z,2.53
2017-12-28T00:11:14.179Z,2.23
2017-12-28T00:13:44.170Z,2.40
2017-12-28T00:16:15.217Z,2.67
2017-12-28T00:18:45.225Z,2.85
2017-12-28T00:21:14.240Z,2.55
2017-12-28T00:26:20.450Z,2.78
2017-12-28T00:28:49.496Z,2.70
2017-12-28T00:31:18.526Z,2.85
2017-12-28T00:36:24.752Z,3.30
2017-12-28T00:38:55.694Z,2.67
2017-12-28T00:41:24.731Z,2.90
2017-12-28T00:43:57.296Z,3.20
2017-12-28T00:46:26.362Z,2.70
2017-12-28T00:48:57.302Z,3.08
2017-12-28T00:51:26.336Z,2.93
2017-12-28T00:53:55.391Z,3.10
2017-12-28T00:56:24.453Z,3.20
2017-12-28T00:59:01.504Z,3.10
2017-12-28T01:01:30.533Z,2.83
2017-12-28T01:04:01.577Z,3.45
2017-12-28T01:06:30.659Z,3.20
2017-12-28T01:08:59.678Z,3.10
2017-12-28T01:11:28.720Z,2.90
2017-12-28T01:14:03.093Z,4.00
2017-12-28T01:16:32.148Z,3.20
2017-12-28T01:19:03.112Z,3.65
2017-12-28T01:21:32.150Z,4.05
2017-12-28T01:24:08.893Z,3.33
2017-12-28T01:26:37.945Z,4.47
2017-12-28T01:31:33.136Z,4.00
2017-12-28T01:34:12.079Z,4.30
2017-12-28T01:37:02.949Z,4.60
2017-12-28T01:39:32.069Z,3.73
2017-12-28T01:42:14.098Z,4.15
2017-12-28T01:44:52.151Z,4.60
2017-12-28T01:47:21.261Z,3.23
2017-12-28T01:49:50.291Z,4.37
2017-12-28T01:52:19.342Z,3.57
2017-12-28T01:54:49.376Z,4.70
2017-12-28T01:57:18.420Z,3.70
2017-12-28T01:59:47.463Z,5.10
2017-12-28T02:02:18.409Z,4.62
2017-12-28T02:04:47.475Z,4.13
2017-12-28T02:07:23.169Z,5.40
2017-12-28T02:09:52.184Z,4.72
2017-12-28T02:12:21.221Z,4.07
2017-12-28T02:17:27.084Z,4.80
2017-12-28T02:20:00.014Z,3.57
2017-12-28T02:22:29.079Z,4.55
2017-12-28T02:24:58.134Z,4.80
2017-12-28T02:27:27.208Z,3.60
2017-12-28T02:29:56.224Z,4.47
2017-12-28T02:32:25.262Z,4.90
2017-12-28T02:34:54.299Z,3.93
2017-12-28T02:37:23.361Z,4.60
2017-12-28T02:39:52.458Z,3.97
2017-12-28T02:42:21.461Z,4.00
2017-12-28T02:44:50.509Z,4.30
2017-12-28T02:47:19.561Z,3.67
2017-12-28T02:52:32.645Z,3.90
2017-12-28T02:55:01.678Z,2.90
2017-12-28T02:57:30.740Z,3.62
2017-12-28T03:00:04.233Z,3.62
2017-12-28T03:02:33.269Z,2.60
2017-12-28T03:05:04.221Z,4.07
2017-12-28T03:07:33.268Z,3.67
2017-12-28T03:10:02.309Z,3.70
2017-12-28T03:12:31.340Z,4.20
2017-12-28T03:15:06.216Z,2.70
2017-12-28T03:17:35.232Z,3.50
2017-12-28T03:20:05.204Z,3.33
2017-12-28T03:22:34.256Z,2.60
2017-12-28T03:25:08.548Z,3.70
2017-12-28T03:27:37.589Z,2.83
2017-12-28T03:30:12.855Z,3.40
2017-12-28T03:32:44.081Z,3.40
2017-12-28T03:35:13.146Z,2.90
2017-12-28T03:37:42.184Z,3.30
2017-12-28T03:40:11.211Z,3.03
2017-12-28T03:42:40.259Z,3.50
2017-12-28T03:45:10.231Z,3.20
2017-12-28T03:47:39.315Z,2.77
2017-12-28T03:50:08.344Z,3.42
2017-12-28T03:52:37.688Z,2.87
2017-12-28T03:57:42.377Z,3.50
2017-12-28T04:00:11.408Z,2.70
2017-12-28T04:02:40.477Z,3.20
2017-12-28T04:05:11.433Z,3.58
2017-12-28T04:07:40.473Z,3.50
2017-12-28T04:10:20.165Z,2.93
2017-12-28T04:12:54.429Z,3.00
2017-12-28T04:15:23.454Z,3.60
2017-12-28T04:17:52.497Z,2.90
2017-12-28T04:20:21.529Z,3.50
2017-12-28T04:22:51.580Z,3.55
2017-12-28T04:25:20.611Z,2.90
2017-12-28T04:27:49.665Z,3.80
2017-12-28T04:30:18.700Z,3.93
2017-12-28T04:32:47.720Z,4.50
2017-12-28T04:35:16.757Z,4.30
2017-12-28T04:37:45.788Z,3.10
2017-12-28T04:40:14.883Z,4.40
2017-12-28T04:42:43.933Z,5.00
2017-12-28T04:47:51.149Z,4.70
2017-12-28T04:50:29.096Z,3.60
2017-12-28T04:52:58.172Z,4.35
2017-12-28T04:55:27.202Z,3.97
2017-12-28T04:57:57.200Z,4.78
2017-12-28T05:00:26.236Z,3.43
2017-12-28T05:02:59.533Z,5.00
2017-12-28T05:05:30.548Z,3.80
2017-12-28T05:08:00.637Z,4.78
2017-12-28T05:10:33.033Z,3.97
2017-12-28T05:13:04.107Z,4.30
2017-12-28T05:18:10.401Z,5.47
2017-12-28T05:20:40.418Z,4.23
2017-12-28T05:23:09.446Z,4.50
2017-12-28T05:25:40.445Z,4.40
2017-12-28T05:28:09.489Z,2.83
2017-12-28T05:33:18.825Z,4.47
2017-12-28T05:35:51.016Z,4.40
2017-12-28T05:38:20.201Z,4.97
2017-12-28T05:40:51.245Z,3.80
2017-12-28T05:43:20.258Z,3.72
2017-12-28T05:45:49.296Z,2.60
2017-12-28T05:48:18.341Z,4.00
2017-12-28T05:50:47.377Z,3.97
2017-12-28T05:53:16.416Z,2.70
2017-12-28T05:55:46.415Z,3.90
2017-12-28T05:58:15.604Z,3.70
2017-12-28T06:00:44.693Z,3.00
2017-12-28T06:03:13.728Z,4.32
2017-12-28T06:05:46.224Z,3.80
2017-12-28T06:08:16.336Z,3.20
2017-12-28T06:10:49.809Z,3.80
2017-12-28T06:13:18.852Z,3.40
2017-12-28T06:15:48.836Z,2.50
2017-12-28T06:18:19.892Z,3.08
2017-12-28T06:23:26.083Z,3.00
2017-12-28T06:25:58.957Z,3.00
2017-12-28T06:28:28.042Z,2.70
2017-12-28T06:30:57.085Z,2.95
2017-12-28T06:33:26.157Z,3.30
2017-12-28T06:38:33.319Z,3.10
2017-12-28T06:41:04.301Z,2.70
2017-12-28T06:43:33.386Z,2.60
2017-12-28T06:46:02.426Z,1.73
2017-12-28T06:48:31.465Z,2.20
2017-12-28T06:51:00.509Z,2.80
2017-12-28T06:53:29.541Z,2.13
2017-12-28T06:56:00.522Z,2.20
2017-12-28T06:58:29.579Z,2.30
2017-12-28T07:01:07.249Z,2.00
2017-12-28T07:03:36.257Z,1.47
2017-12-28T07:06:06.283Z,2.00
2017-12-28T07:08:36.261Z,1.70
2017-12-28T07:11:05.289Z,1.40
2017-12-28T07:13:34.363Z,1.50
2017-12-28T07:16:07.742Z,1.80
2017-12-28T07:18:36.830Z,1.20
2017-12-28T07:21:05.856Z,1.50
2017-12-28T07:23:35.789Z,1.52
2017-12-28T07:26:04.972Z,1.10
2017-12-28T07:28:34.028Z,1.30
2017-12-28T07:31:03.068Z,1.60
2017-12-28T07:33:32.166Z,1.20
2017-12-28T07:36:01.211Z,0.90
2017-12-28T07:38:30.397Z,1.58
2017-12-28T07:40:59.489Z,1.10
2017-12-28T07:46:07.711Z,1.27
2017-12-28T07:48:38.739Z,0.83
2017-12-28T07:51:08.577Z,1.30
2017-12-28T07:53:38.481Z,1.40
2017-12-28T07:56:08.564Z,1.03
2017-12-28T07:58:41.001Z,1.10
2017-12-28T08:01:14.482Z,1.20
2017-12-28T08:03:44.528Z,0.90
2017-12-28T08:06:13.577Z,1.00
2017-12-28T08:08:42.617Z,1.07
2017-12-28T08:11:11.748Z,1.05
2017-12-28T08:13:40.785Z,1.30
2017-12-28T08:16:09.816Z,1.00
2017-12-28T08:18:39.809Z,1.00
2017-12-28T08:21:09.865Z,1.02
2017-12-28T08:26:17.097Z,1.30
2017-12-28T08:28:46.137Z,1.20
2017-12-28T08:31:15.161Z,1.15
2017-12-28T08:33:45.178Z,1.05
2017-12-28T08:38:52.385Z,0.90
2017-12-28T08:41:21.459Z,1.00
2017-12-28T08:43:50.465Z,0.90
2017-12-28T08:46:21.524Z,0.90
2017-12-28T08:48:50.546Z,1.10
2017-12-28T08:51:22.340Z,1.03
2017-12-28T08:53:51.606Z,1.10
2017-12-28T08:56:21.596Z,0.80
2017-12-28T08:58:51.636Z,0.90
2017-12-28T09:01:21.179Z,1.03
2017-12-28T09:03:50.221Z,0.98
2017-12-28T09:06:21.414Z,0.82
2017-12-28T09:08:50.450Z,0.60
2017-12-28T09:11:19.723Z,0.90
2017-12-28T09:13:49.681Z,1.23
2017-12-28T09:16:18.713Z,1.02
2017-12-28T09:18:47.794Z,0.90
2017-12-28T09:21:20.843Z,1.10
2017-12-28T09:23:53.763Z,1.20
2017-12-28T09:26:22.794Z,0.93
2017-12-28T09:28:57.772Z,1.20
2017-12-28T09:31:26.777Z,0.90
2017-12-28T09:33:56.806Z,0.80
2017-12-28T09:36:25.848Z,1.25
2017-12-28T09:38:58.314Z,0.95
2017-12-28T09:41:27.361Z,0.80
2017-12-28T09:43:56.395Z,1.00
2017-12-28T09:46:25.437Z,1.00
2017-12-28T09:48:54.485Z,1.30
2017-12-28T09:51:23.539Z,1.17
2017-12-28T09:53:53.494Z,1.08
2017-12-28T09:56:22.538Z,0.93
2017-12-28T09:58:51.605Z,0.80
2017-12-28T10:01:20.641Z,1.15
2017-12-28T10:03:49.697Z,0.80
2017-12-28T10:06:18.741Z,1.00
2017-12-28T10:08:47.793Z,1.10
2017-12-28T10:13:52.049Z,1.00
2017-12-28T10:16:26.957Z,1.10
2017-12-28T10:18:58.010Z,1.20
2017-12-28T10:21:27.057Z,1.00
2017-12-28T10:23:57.015Z,1.48
2017-12-28T10:26:26.077Z,0.80
2017-12-28T10:29:00.355Z,1.73
2017-12-28T10:31:30.387Z,1.20
2017-12-28T10:34:04.250Z,1.40
2017-12-28T10:36:33.948Z,1.73
2017-12-28T10:39:04.008Z,1.50
2017-12-28T10:41:33.054Z,1.23
2017-12-28T10:44:05.801Z,1.80
2017-12-28T10:46:34.829Z,1.30
2017-12-28T10:49:04.923Z,1.50
2017-12-28T10:51:33.929Z,1.50
2017-12-28T10:54:04.981Z,1.58
2017-12-28T10:56:34.007Z,1.70
2017-12-28T10:59:04.985Z,1.20
2017-12-28T11:01:34.041Z,1.60
2017-12-28T11:04:07.525Z,1.20
2017-12-28T11:06:37.416Z,1.40
2017-12-28T11:11:43.738Z,1.35
2017-12-28T11:14:13.071Z,2.07
2017-12-28T11:16:42.093Z,1.40
2017-12-28T11:19:22.223Z,1.30
2017-12-28T11:21:51.248Z,1.23
2017-12-28T11:24:21.291Z,1.40
2017-12-28T11:26:50.316Z,1.50
2017-12-28T11:29:20.133Z,1.30
2017-12-28T11:32:02.486Z,1.60
2017-12-28T11:34:31.546Z,1.20
2017-12-28T11:37:01.847Z,1.60
2017-12-28T11:39:30.873Z,1.47
2017-12-28T11:42:00.921Z,1.60
2017-12-28T11:44:29.973Z,1.30
2017-12-28T11:47:03.724Z,1.70
2017-12-28T11:49:32.779Z,1.10
2017-12-28T11:52:18.922Z,1.90
2017-12-28T11:54:47.924Z,1.30
2017-12-28T11:57:24.637Z,2.00
2017-12-28T11:59:55.716Z,2.20
2017-12-28T12:02:30.229Z,1.80
2017-12-28T12:05:05.803Z,1.80
2017-12-28T12:10:23.063Z,2.30
2017-12-28T12:12:52.113Z,2.70
2017-12-28T12:15:21.136Z,3.30
2017-12-28T12:17:58.313Z,3.10
2017-12-28T12:20:27.341Z,3.10
2017-12-28T12:22:56.370Z,2.70
2017-12-28T12:29:09.521Z,2.40
2017-12-28T12:31:38.576Z,2.80
2017-12-28T12:34:07.615Z,3.00
2017-12-28T12:39:13.019Z,2.50
2017-12-28T12:41:42.053Z,2.70
2017-12-28T12:44:11.089Z,2.80
2017-12-28T12:46:41.091Z,3.00
2017-12-28T12:49:10.161Z,2.80
2017-12-28T12:51:40.372Z,2.30
2017-12-28T12:54:09.397Z,2.67
2017-12-28T12:56:38.448Z,2.20
2017-12-28T12:59:08.515Z,1.70
2017-12-28T13:01:37.745Z,2.10
2017-12-28T13:04:06.777Z,2.13
2017-12-28T13:06:38.813Z,2.20
2017-12-28T13:09:07.851Z,1.90
2017-12-28T13:14:12.110Z,2.85
2017-12-28T13:19:16.417Z,3.83
2017-12-28T13:21:45.450Z,2.83
2017-12-28T13:24:14.486Z,4.47
2017-12-28T13:26:46.699Z,4.90
2017-12-28T13:29:16.653Z,4.28
2017-12-28T13:31:47.514Z,4.70
2017-12-28T13:34:17.349Z,4.80
2017-12-28T13:36:46.352Z,5.07
2017-12-28T13:39:15.392Z,3.60
2017-12-28T13:41:44.461Z,4.10
2017-12-28T13:44:13.485Z,4.03
2017-12-28T13:46:42.557Z,4.50
2017-12-28T13:49:11.602Z,4.75
2017-12-28T13:51:40.661Z,4.43
2017-12-28T13:54:09.696Z,4.28
2017-12-28T13:56:38.857Z,3.77
2017-12-28T13:59:07.893Z,3.80
2017-12-28T14:01:38.865Z,2.80
2017-12-28T14:04:08.004Z,3.70
2017-12-28T14:09:12.641Z,4.00
2017-12-28T14:11:41.656Z,4.00
2017-12-28T14:14:10.695Z,3.00
2017-12-28T14:16:39.729Z,4.20
2017-12-28T14:19:08.761Z,4.33
2017-12-28T14:21:37.819Z,4.30
2017-12-28T14:26:42.218Z,9.90
2017-12-28T14:29:11.331Z,6.00
2017-12-28T14:31:40.359Z,5.78
2017-12-28T14:34:09.402Z,12.10
2017-12-28T14:36:38.458Z,7.15
2017-12-28T14:39:07.529Z,7.28
2017-12-28T14:41:36.610Z,4.80
2017-12-28T14:44:07.624Z,9.85
2017-12-28T14:46:37.530Z,7.70
2017-12-28T14:49:06.573Z,4.80
2017-12-28T14:51:35.616Z,4.90
2017-12-28T14:56:40.835Z,4.25
2017-12-28T14:59:09.874Z,4.07
2017-12-28T15:01:39.031Z,4.60
2017-12-28T15:04:08.146Z,5.50
2017-12-28T15:06:37.208Z,4.23
2017-12-28T15:09:07.200Z,5.53
2017-12-28T15:11:36.238Z,6.13
2017-12-28T15:14:05.320Z,7.87
2017-12-28T15:16:34.381Z,6.65
2017-12-28T15:19:04.444Z,6.30
2017-12-28T15:21:33.444Z,5.80
2017-12-28T15:24:02.487Z,6.57
2017-12-28T15:26:31.538Z,3.87
2017-12-28T15:29:03.950Z,6.85
2017-12-28T15:31:33.084Z,8.30
2017-12-28T15:34:03.009Z,5.75
2017-12-28T15:36:36.211Z,6.27
2017-12-28T15:39:06.291Z,10.85
2017-12-28T15:41:35.354Z,7.40
2017-12-28T15:44:08.575Z,6.30
2017-12-28T15:46:37.637Z,7.68
2017-12-28T15:51:43.462Z,8.30
2017-12-28T15:54:12.469Z,13.35
2017-12-28T15:56:41.539Z,11.07
2017-12-28T15:59:13.632Z,9.50
2017-12-28T16:01:42.786Z,7.68
2017-12-28T16:04:11.820Z,7.90
2017-12-28T16:06:40.866Z,7.45
2017-12-28T16:09:09.897Z,7.60
2017-12-28T16:11:38.956Z,6.87
2017-12-28T16:14:08.037Z,7.55
2017-12-28T16:16:37.077Z,9.05
2017-12-28T16:19:06.112Z,6.50
2017-12-28T16:21:35.192Z,7.20
2017-12-28T16:24:04.221Z,7.72
2017-12-28T16:26:33.288Z,6.43
2017-12-28T16:29:04.250Z,6.90
2017-12-28T16:31:33.285Z,4.93
2017-12-28T16:34:03.378Z,6.10
2017-12-28T16:36:32.406Z,6.65
2017-12-28T16:39:02.372Z,8.25
2017-12-28T16:41:31.433Z,8.50
2017-12-28T16:44:00.462Z,7.93
2017-12-28T16:46:29.493Z,10.57
2017-12-28T16:49:02.885Z,6.60
2017-12-28T16:51:31.997Z,9.15
2017-12-28T16:54:01.045Z,8.80
2017-12-28T16:56:30.078Z,6.50
2017-12-28T17:01:35.263Z,5.82
2017-12-28T17:04:04.292Z,6.17
2017-12-28T17:06:33.347Z,5.82
2017-12-28T17:09:11.864Z,5.60
2017-12-28T17:14:22.029Z,6.20
2017-12-28T17:16:52.045Z,6.67
2017-12-28T17:19:22.089Z,9.32
2017-12-28T17:21:51.185Z,7.57
2017-12-28T17:26:56.977Z,6.82
2017-12-28T17:29:26.012Z,6.43
2017-12-28T17:31:55.094Z,7.10
2017-12-28T17:37:01.903Z,6.40
2017-12-28T17:39:30.946Z,5.27
2017-12-28T17:42:07.871Z,11.30
2017-12-28T17:44:36.877Z,5.70
2017-12-28T17:47:05.925Z,5.50
2017-12-28T17:52:15.820Z,7.32
2017-12-28T17:54:47.453Z,17.00
2017-12-28T17:57:21.452Z,8.85
2017-12-28T17:59:52.554Z,12.00
2017-12-28T18:02:21.596Z,6.70
2017-12-28T18:10:05.075Z,7.40
2017-12-28T18:12:34.097Z,7.60
2017-12-28T18:15:03.132Z,9.00
2017-12-28T18:17:32.191Z,4.83
2017-12-28T18:20:01.253Z,6.45
2017-12-28T18:22:31.198Z,5.50
2017-12-28T18:25:00.244Z,6.40
2017-12-28T18:27:29.282Z,6.40
2017-12-28T18:29:58.372Z,5.00
2017-12-28T18:32:34.916Z,6.53
2017-12-28T18:35:03.949Z,5.30
2017-12-28T18:37:45.028Z,6.25
2017-12-28T18:40:14.078Z,7.95
2017-12-28T18:42:44.117Z,8.53
2017-12-28T18:45:13.157Z,15.50
2017-12-28T18:47:43.149Z,10.97
2017-12-28T18:50:12.249Z,18.42
2017-12-28T18:52:41.342Z,14.55
2017-12-28T18:55:10.373Z,8.07
2017-12-28T18:57:40.356Z,16.50
2017-12-28T19:00:09.397Z,17.65
2017-12-28T19:02:40.452Z,10.87
2017-12-28T19:05:15.994Z,25.77
2017-12-28T19:07:48.182Z,20.40
2017-12-28T19:10:17.283Z,11.30
2017-12-28T19:12:46.329Z,7.20
2017-12-28T19:15:16.342Z,15.30
2017-12-28T19:17:48.529Z,11.80
2017-12-28T19:20:17.597Z,13.98
2017-12-28T19:22:47.831Z,18.77
2017-12-28T19:28:02.877Z,7.80
2017-12-28T19:30:33.877Z,6.40
2017-12-28T19:35:50.911Z,8.10
2017-12-28T19:38:19.982Z,5.57
2017-12-28T19:40:49.078Z,7.68
2017-12-28T19:43:18.136Z,6.87
2017-12-28T19:45:47.170Z,8.20
2017-12-28T19:48:16.221Z,15.77
2017-12-28T19:50:45.270Z,6.87
2017-12-28T19:53:14.332Z,15.45
2017-12-28T19:55:43.374Z,15.20
2017-12-28T19:58:12.566Z,20.73
2017-12-28T20:00:41.634Z,25.67
2017-12-28T20:03:10.713Z,18.48
2017-12-28T20:05:39.765Z,13.88
2017-12-28T20:08:10.733Z,8.30
2017-12-28T20:10:39.779Z,19.65
2017-12-28T20:13:08.882Z,15.30
2017-12-28T20:15:37.949Z,19.62
2017-12-28T20:18:08.978Z,11.35
2017-12-28T20:20:38.066Z,28.67
2017-12-28T20:23:07.115Z,12.82
2017-12-28T20:25:37.144Z,11.00
2017-12-28T20:28:06.405Z,10.00
2017-12-28T20:30:35.486Z,15.00
2017-12-28T20:33:04.559Z,12.48
2017-12-28T20:35:33.653Z,13.80
2017-12-28T20:38:02.798Z,9.35
2017-12-28T20:43:07.226Z,10.40
2017-12-28T20:45:36.385Z,6.50
2017-12-28T20:48:05.433Z,9.88
2017-12-28T20:50:34.486Z,9.13
2017-12-28T20:53:03.540Z,9.25
2017-12-28T20:58:12.916Z,8.25
2017-12-28T21:00:42.520Z,7.53
2017-12-28T21:05:47.721Z,7.55
2017-12-28T21:10:52.062Z,7.15
2017-12-28T21:13:21.104Z,6.40
2017-12-28T21:15:50.156Z,7.55
2017-12-28T21:18:19.227Z,7.43
2017-12-28T21:20:48.285Z,7.53
2017-12-28T21:23:17.358Z,5.10
2017-12-28T21:25:46.588Z,6.53
2017-12-28T21:28:15.634Z,5.43
2017-12-28T21:30:44.677Z,4.20
2017-12-28T21:33:13.785Z,6.28
2017-12-28T21:35:42.954Z,4.40
2017-12-28T21:38:12.003Z,6.55
2017-12-28T21:40:41.206Z,6.47
2017-12-28T21:43:13.098Z,6.93
2017-12-28T21:45:42.567Z,6.30
2017-12-28T21:50:46.958Z,7.00
2017-12-28T21:53:16.029Z,5.40
2017-12-28T21:55:45.092Z,7.07
2017-12-28T21:58:14.147Z,6.93
2017-12-28T22:00:43.194Z,5.70
2017-12-28T22:03:12.274Z,6.87
2017-12-28T22:05:41.329Z,7.60
2017-12-28T22:08:10.398Z,5.70
2017-12-28T22:10:40.699Z,7.00
2017-12-28T22:13:18.106Z,7.65
2017-12-28T22:15:49.989Z,7.32
2017-12-28T22:23:55.516Z,7.68
2017-12-28T22:29:03.257Z,7.00
2017-12-28T22:31:32.679Z,6.20
2017-12-28T22:34:06.380Z,7.70
2017-12-28T22:36:36.942Z,6.60
2017-12-28T22:39:09.302Z,5.60
2017-12-28T22:41:38.686Z,7.25
2017-12-28T22:46:45.762Z,7.50
2017-12-28T22:49:15.944Z,7.00
2017-12-28T22:51:47.829Z,4.70
2017-12-28T22:54:24.453Z,6.53
2017-12-28T22:59:31.698Z,6.40
2017-12-28T23:04:38.874Z,6.22
2017-12-28T23:07:07.966Z,5.37
2017-12-28T23:09:37.277Z,6.43
2017-12-28T23:12:08.278Z,6.07
2017-12-28T23:14:37.361Z,5.20
2017-12-28T23:17:06.431Z,6.57
2017-12-28T23:19:36.407Z,6.40
2017-12-28T23:22:06.222Z,5.20
2017-12-28T23:24:35.330Z,5.80
2017-12-28T23:27:25.499Z,6.60
2017-12-28T23:30:04.443Z,5.72
2017-12-28T23:32:33.628Z,4.70
2017-12-28T23:35:02.770Z,5.50
2017-12-28T23:37:31.924Z,5.80
2017-12-28T23:40:01.057Z,4.50
2017-12-28T23:42:30.124Z,6.18
2017-12-28T23:44:59.154Z,5.30
2017-12-28T23:47:28.407Z,5.53
2017-12-28T23:49:57.603Z,4.23
2017-12-28T23:52:26.665Z,5.50
2017-12-28T23:54:57.958Z,5.70
2017-12-28T23:57:27.830Z,5.80
2017-12-28T23:59:58.177Z,4.70
